createdAt,value
2018-09-09T00:49:22.295Z,95744.52
2018-09-09T00:54:25.718Z,95744.48
2018-09-09T00:59:29.547Z,95742.37
2018-09-09T02:30:56.772Z,95742.24
2018-09-09T02:36:00.128Z,95740.08
2018-09-09T02:41:03.471Z,95746.08
2018-09-09T03:49:24.827Z,95753.91
2018-09-09T03:54:28.163Z,95752.98
2018-09-09T03:59:31.502Z,95755.03
2018-09-09T05:02:07.151Z,95797.94
2018-09-09T05:07:10.477Z,95805.56
2018-09-09T05:12:13.815Z,95808.68
2018-09-09T05:17:17.144Z,95804.45
2018-09-09T05:22:21.235Z,95805.80
2018-09-09T05:27:24.584Z,95811.36
2018-09-09T05:32:28.135Z,95809.39
2018-09-09T05:37:31.462Z,95816.27
2018-09-09T05:42:34.794Z,95825.67
2018-09-09T05:47:38.134Z,95824.42
2018-09-09T05:52:42.252Z,95828.02
2018-09-09T05:57:45.634Z,95827.08
2018-09-09T06:02:48.923Z,95830.06
2018-09-09T06:07:52.251Z,95836.62
2018-09-09T06:12:55.574Z,95822.04
2018-09-09T06:17:58.906Z,95816.43
2018-09-09T06:23:02.247Z,95813.03
2018-09-09T06:28:06.344Z,95801.67
2018-09-09T06:33:09.683Z,95802.14
2018-09-09T06:38:13.791Z,95795.81
2018-09-09T06:43:17.130Z,95799.83
2018-09-09T06:48:21.234Z,95804.72
2018-09-09T06:53:24.567Z,95805.67
2018-09-09T06:58:28.656Z,95807.28
2018-09-09T07:03:31.994Z,95821.75
2018-09-09T07:08:35.330Z,95835.13
2018-09-09T07:13:39.431Z,95832.17
2018-09-09T07:18:42.769Z,95844.88
2018-09-09T07:23:46.858Z,95845.88
2018-09-09T07:28:50.229Z,95847.28
2018-09-09T07:33:53.560Z,95842.17
2018-09-09T07:38:56.884Z,95842.53
2018-09-09T07:44:00.211Z,95848.61
2018-09-09T07:49:03.544Z,95855.20
2018-09-09T07:54:30.590Z,95848.45
2018-09-09T07:59:33.953Z,95855.93
2018-09-09T08:04:38.047Z,95867.92
2018-09-09T08:09:41.391Z,95870.77
2018-09-09T08:14:48.713Z,95870.63
2018-09-09T08:19:52.046Z,95868.27
2018-09-09T08:24:55.379Z,95860.68
2018-09-09T08:29:58.964Z,95862.45
2018-09-09T08:35:03.447Z,95862.34
2018-09-09T08:40:06.847Z,95863.17
2018-09-09T08:45:11.196Z,95870.63
2018-09-09T08:50:14.534Z,95864.03
2018-09-09T08:55:18.659Z,95872.12
2018-09-09T09:00:21.996Z,95861.73
2018-09-09T09:05:38.750Z,95869.15
2018-09-09T09:10:42.074Z,95868.38
2018-09-09T09:15:45.404Z,95863.32
2018-09-09T09:20:48.738Z,95864.87
2018-09-09T09:25:52.067Z,95873.56
2018-09-09T09:30:56.167Z,95862.93
2018-09-09T09:36:02.441Z,95854.91
2018-09-09T09:41:09.927Z,95850.60
2018-09-09T09:46:19.384Z,95848.80
2018-09-09T09:51:22.718Z,95844.61
2018-09-09T09:56:37.885Z,95843.39
2018-09-09T10:01:41.220Z,95833.98
2018-09-09T10:17:54.856Z,95849.41
2018-09-09T10:22:58.194Z,95844.22
2018-09-09T10:28:01.524Z,95846.09
2018-09-09T10:33:05.615Z,95843.56
2018-09-09T10:38:08.964Z,95839.06
2018-09-09T10:43:12.291Z,95835.91
2018-09-09T10:48:16.379Z,95838.30
2018-09-09T10:53:19.716Z,95842.31
2018-09-09T10:58:23.815Z,95838.27
2018-09-09T11:03:27.151Z,95836.17
2018-09-09T11:08:30.494Z,95827.45
2018-09-09T11:13:33.843Z,95830.05
2018-09-09T11:18:37.167Z,95831.23
2018-09-09T11:23:40.504Z,95815.75
2018-09-09T11:28:43.861Z,95824.99
2018-09-09T11:33:47.311Z,95810.44
2018-09-09T11:38:50.639Z,95805.89
2018-09-09T11:43:53.975Z,95805.34
2018-09-09T11:48:58.086Z,95798.07
2018-09-09T11:54:01.412Z,95800.23
2018-09-09T11:59:05.511Z,95802.12
2018-09-09T12:04:08.853Z,95801.58
2018-09-09T12:09:12.938Z,95804.55
2018-09-09T12:14:16.274Z,95809.27
2018-09-09T12:19:19.615Z,95801.56
2018-09-09T12:24:23.701Z,95801.20
2018-09-09T12:29:27.033Z,95800.57
2018-09-09T12:34:30.359Z,95804.31
2018-09-09T12:39:33.699Z,95802.81
2018-09-09T12:44:42.634Z,95794.75
2018-09-09T12:49:46.727Z,95797.01
2018-09-09T12:54:50.078Z,95796.52
2018-09-09T12:59:54.182Z,95794.37
2018-09-09T13:04:57.635Z,95798.59
2018-09-09T13:10:01.775Z,95799.50
2018-09-09T13:15:05.106Z,95800.87
2018-09-09T13:20:08.427Z,95803.33
2018-09-09T13:25:11.755Z,95797.75
2018-09-09T13:30:15.082Z,95793.34
2018-09-09T13:35:18.411Z,95795.54
2018-09-09T13:40:22.508Z,95787.33
2018-09-09T13:45:25.840Z,95785.16
2018-09-09T13:50:29.952Z,95778.75
2018-09-09T13:55:33.282Z,95774.41
2018-09-09T14:00:36.612Z,95770.48
2018-09-09T14:05:40.703Z,95775.23
2018-09-09T14:10:44.034Z,95771.63
2018-09-09T14:15:47.358Z,95772.59
2018-09-09T14:20:51.451Z,95771.09
2018-09-09T14:25:54.787Z,95772.39
2018-09-09T14:30:58.879Z,95769.32
2018-09-09T14:36:02.201Z,95770.31
2018-09-09T14:41:05.528Z,95769.38
2018-09-09T14:46:27.707Z,95756.55
2018-09-09T14:51:31.798Z,95758.66
2018-09-09T14:56:36.147Z,95758.70
2018-09-09T15:01:39.475Z,95758.78
2018-09-09T15:06:56.872Z,95755.28
2018-09-09T15:12:00.158Z,95760.45
2018-09-09T15:17:03.491Z,95756.36
2018-09-09T15:22:06.827Z,95753.85
2018-09-09T15:27:10.161Z,95752.18
2018-09-09T15:32:13.551Z,95743.45
2018-09-09T15:37:16.910Z,95750.57
2018-09-09T15:42:21.011Z,95744.38
2018-09-09T15:47:24.339Z,95754.09
2018-09-09T15:52:27.670Z,95750.97
2018-09-09T15:57:30.998Z,95748.93
2018-09-09T16:02:34.333Z,95748.80
2018-09-09T16:07:37.659Z,95759.13
2018-09-09T16:12:41.039Z,95753.06
2018-09-09T16:17:44.348Z,95755.25
2018-09-09T16:22:47.690Z,95757.17
2018-09-09T16:27:51.016Z,95762.42
2018-09-09T16:32:54.343Z,95758.33
2018-09-09T16:37:57.682Z,95766.52
2018-09-09T16:43:01.774Z,95769.50
2018-09-09T16:48:05.107Z,95768.08
2018-09-09T16:53:08.457Z,95770.80
2018-09-09T16:58:11.791Z,95770.86
2018-09-09T17:03:15.128Z,95773.34
2018-09-09T17:08:18.468Z,95769.55
2018-09-09T17:13:22.566Z,95771.06
2018-09-09T17:18:25.886Z,95774.30
2018-09-09T17:23:29.214Z,95770.20
2018-09-09T17:28:32.557Z,95771.80
2018-09-09T17:33:35.892Z,95768.77
2018-09-09T17:38:39.735Z,95779.97
2018-09-09T17:43:43.397Z,95780.75
2018-09-09T17:48:47.523Z,95781.70
2018-09-09T17:53:51.627Z,95784.82
2018-09-09T17:58:54.968Z,95784.74
2018-09-09T18:03:59.078Z,95785.27
2018-09-09T18:09:02.426Z,95790.36
2018-09-09T18:14:05.779Z,95795.17
2018-09-09T18:19:09.409Z,95804.95
2018-09-09T18:24:13.119Z,95804.29
2018-09-09T18:29:16.456Z,95809.67
2018-09-09T18:34:19.786Z,95810.10
2018-09-09T18:39:23.135Z,95817.09
2018-09-09T18:44:26.472Z,95810.95
2018-09-09T18:49:29.810Z,95816.40
2018-09-09T18:54:33.143Z,95815.28
2018-09-09T18:59:37.247Z,95818.63
2018-09-09T19:04:42.519Z,95824.58
2018-09-09T19:09:46.602Z,95822.08
2018-09-09T19:14:51.882Z,95815.74
2018-09-09T19:19:55.225Z,95823.14
2018-09-09T19:24:58.564Z,95825.27
2018-09-09T19:30:02.663Z,95824.67
2018-09-09T19:58:41.548Z,95828.98
2018-09-09T20:03:45.116Z,95828.02
2018-09-09T20:08:48.471Z,95832.68
2018-09-09T20:13:51.867Z,95838.48
2018-09-09T20:18:55.192Z,95834.80
2018-09-09T20:23:58.531Z,95835.64
2018-09-09T20:29:01.883Z,95844.70
2018-09-09T20:34:05.215Z,95842.26
2018-09-09T20:39:08.539Z,95846.70
2018-09-09T20:44:11.868Z,95855.56
2018-09-09T20:49:15.202Z,95855.63
2018-09-09T20:54:18.530Z,95849.19
2018-09-09T20:59:22.643Z,95853.02
2018-09-09T21:04:25.988Z,95848.68
2018-09-09T21:09:29.366Z,95848.72
2018-09-09T21:14:32.959Z,95843.38
2018-09-09T21:19:36.286Z,95847.61
2018-09-09T21:24:39.631Z,95849.49
2018-09-09T21:29:42.957Z,95846.06
2018-09-09T21:34:46.281Z,95837.61
2018-09-09T21:39:49.610Z,95832.28
2018-09-09T21:44:52.943Z,95839.72
2018-09-09T21:49:56.266Z,95839.06
2018-09-09T21:55:22.546Z,95838.13
2018-09-09T22:00:26.667Z,95836.08
2018-09-09T22:05:39.247Z,95845.65
2018-09-09T22:10:42.569Z,95849.84
2018-09-09T22:15:45.886Z,95847.84
2018-09-09T22:20:49.214Z,95846.83
2018-09-09T22:25:54.463Z,95851.91
2018-09-09T22:30:57.788Z,95855.33
2018-09-09T22:36:01.133Z,95858.16
2018-09-09T22:41:05.227Z,95865.68
2018-09-09T22:46:10.469Z,95865.28
2018-09-09T22:51:13.799Z,95856.13
2018-09-09T22:56:28.234Z,95865.36
2018-09-09T23:01:31.562Z,95864.84
2018-09-09T23:06:35.895Z,95869.75
2018-09-09T23:11:39.223Z,95874.08
